Time;durP1;ratioP1;P1;durP2;ratioP2;P2;SDS_P1;SDS_P2;PMS_P1;PMS_P2;Temp;Humidity;BMP_temperature;BMP_pressure;BME280_temperature;BME280_humidity;BME280_pressure;Samples;Min_cycle;Max_cycle;Signal;HPM_P1;HPM_P2
2023/09/15 00:01:08;;;;;;;10.10;3.83;;;12.60;99.90;;;;;;5025655;28;20080;-62
2023/09/15 00:03:35;;;;;;;8.40;3.85;;;12.60;99.90;;;;;;5033815;28;20081;-62
2023/09/15 00:06:01;;;;;;;7.25;3.50;;;12.60;99.90;;;;;;5033037;28;20485;-62
2023/09/15 00:08:28;;;;;;;9.00;4.25;;;12.50;99.90;;;;;;5049768;28;20044;-62
2023/09/15 00:10:54;;;;;;;7.53;3.72;;;12.50;99.90;;;;;;5050196;28;20049;-62
2023/09/15 00:13:20;;;;;;;7.70;3.80;;;12.50;99.90;;;;;;5032412;28;20094;-62
2023/09/15 00:15:50;;;;;;;6.95;3.30;;;12.50;99.90;;;;;;5017101;28;20041;-62
2023/09/15 00:18:16;;;;;;;7.53;3.90;;;12.50;99.90;;;;;;5033538;28;20494;-62
2023/09/15 00:20:42;;;;;;;7.45;3.30;;;12.50;99.90;;;;;;5050407;28;20081;-62
2023/09/15 00:23:07;;;;;;;8.25;3.95;;;12.50;99.90;;;;;;5054236;28;20045;-62
2023/09/15 00:25:33;;;;;;;11.07;4.25;;;12.50;99.90;;;;;;5037032;28;20041;-62
2023/09/15 00:28:00;;;;;;;6.82;3.45;;;12.50;99.90;;;;;;5036283;28;20107;-62
2023/09/15 00:30:27;;;;;;;8.73;4.05;;;12.50;99.90;;;;;;5037016;28;20045;-62
2023/09/15 00:32:54;;;;;;;8.52;4.30;;;12.40;99.90;;;;;;5054865;28;20041;-62
2023/09/15 00:35:23;;;;;;;9.98;3.83;;;12.40;99.90;;;;;;5036027;28;20047;-62
2023/09/15 00:37:50;;;;;;;10.05;4.07;;;12.40;99.90;;;;;;5036900;28;20057;-62
2023/09/15 00:40:18;;;;;;;7.05;3.92;;;12.40;99.90;;;;;;5052583;28;20041;-62
2023/09/15 00:42:45;;;;;;;9.00;3.65;;;12.30;99.90;;;;;;5036220;28;20076;-62
2023/09/15 00:45:14;;;;;;;7.45;4.07;;;12.30;99.90;;;;;;5054681;28;20037;-62
2023/09/15 00:47:43;;;;;;;8.93;4.15;;;12.30;99.90;;;;;;5038630;28;20164;-62
2023/09/15 00:50:17;;;;;;;9.25;3.50;;;12.30;99.90;;;;;;5045805;28;20402;-62
2023/09/15 00:52:49;;;;;;;11.90;4.13;;;12.30;99.90;;;;;;5020144;28;20494;-62
2023/09/15 00:55:19;;;;;;;9.13;3.70;;;12.30;99.90;;;;;;5019139;28;20048;-62
2023/09/15 00:57:46;;;;;;;9.25;4.57;;;12.30;99.90;;;;;;5036511;28;20041;-62
2023/09/15 01:00:12;;;;;;;9.20;3.95;;;12.30;99.90;;;;;;5041000;28;20053;-62
2023/09/15 01:02:48;;;;;;;7.60;3.38;;;12.20;99.90;;;;;;5052219;28;20510;-62
2023/09/15 01:05:21;;;;;;;8.30;3.70;;;12.20;99.90;;;;;;5044525;28;20437;-62
2023/09/15 01:07:52;;;;;;;8.50;4.00;;;12.10;99.90;;;;;;5052927;28;20132;-62
2023/09/15 01:10:19;;;;;;;10.15;4.47;;;12.10;99.90;;;;;;5035384;28;20085;-62
2023/09/15 01:12:46;;;;;;;7.82;3.88;;;12.10;99.90;;;;;;5053764;28;20041;-62
2023/09/15 01:15:12;;;;;;;8.60;3.30;;;12.10;99.90;;;;;;5052560;28;20053;-62
2023/09/15 01:18:26;;;;;;;9.45;3.90;;;12.10;99.90;;;;;;5035225;28;20410;-62
2023/09/15 01:21:16;;;;;;;10.32;4.32;;;12.10;99.90;;;;;;4956814;28;20042;-62
2023/09/15 01:24:15;;;;;;;9.35;3.80;;;12.00;99.90;;;;;;5035441;28;20032;-62
2023/09/15 01:27:12;;;;;;;9.10;3.85;;;12.00;99.90;;;;;;5035976;28;20036;-62
2023/09/15 01:29:44;;;;;;;7.88;4.22;;;12.00;99.90;;;;;;5035099;28;20041;-62
2023/09/15 01:32:12;;;;;;;7.93;3.60;;;12.00;99.90;;;;;;5053876;28;20119;-62
2023/09/15 01:34:44;;;;;;;8.15;4.10;;;12.00;99.90;;;;;;5034842;28;20037;-62
2023/09/15 01:37:10;;;;;;;10.63;4.30;;;12.00;99.90;;;;;;5042617;28;20029;-62
2023/09/15 01:39:36;;;;;;;9.13;4.03;;;12.00;99.90;;;;;;5052217;28;20079;-62
2023/09/15 01:42:02;;;;;;;7.78;4.00;;;11.90;99.90;;;;;;5052862;28;20517;-62
2023/09/15 01:44:27;;;;;;;8.95;4.15;;;11.90;99.90;;;;;;5049700;28;20051;-62
2023/09/15 01:46:53;;;;;;;6.18;3.47;;;11.90;99.90;;;;;;5035736;28;20424;-62
2023/09/15 01:49:20;;;;;;;8.23;3.65;;;11.90;99.90;;;;;;5044350;28;20076;-62
2023/09/15 01:51:47;;;;;;;7.80;3.75;;;11.90;99.90;;;;;;5036336;28;20120;-62
2023/09/15 01:54:17;;;;;;;7.38;4.50;;;11.80;99.90;;;;;;5036046;28;20048;-62
2023/09/15 01:56:49;;;;;;;8.48;3.78;;;11.80;99.90;;;;;;5035739;28;20072;-62
2023/09/15 01:59:15;;;;;;;9.50;3.60;;;11.80;99.90;;;;;;5017789;28;20055;-62
2023/09/15 02:01:41;;;;;;;7.28;3.47;;;11.70;99.90;;;;;;5031344;28;20091;-62
2023/09/15 02:04:06;;;;;;;10.07;4.10;;;11.70;99.90;;;;;;5032989;28;20045;-62
2023/09/15 02:06:32;;;;;;;9.77;4.07;;;11.70;99.90;;;;;;5030949;28;20083;-62
2023/09/15 02:08:58;;;;;;;8.93;3.88;;;11.60;99.90;;;;;;5031705;28;20108;-62
2023/09/15 02:11:23;;;;;;;9.13;4.10;;;11.60;99.90;;;;;;5031714;28;20448;-62
2023/09/15 02:13:49;;;;;;;10.93;4.93;;;11.60;99.90;;;;;;5014447;28;20488;-62
2023/09/15 02:16:15;;;;;;;7.78;4.22;;;11.60;99.90;;;;;;5032773;28;20117;-62
2023/09/15 02:18:40;;;;;;;8.45;4.43;;;11.60;99.90;;;;;;5031639;28;20060;-62
2023/09/15 02:21:06;;;;;;;10.98;4.55;;;11.60;99.90;;;;;;5030386;28;20486;-62
2023/09/15 02:23:32;;;;;;;8.77;4.00;;;11.50;99.90;;;;;;5014991;28;20118;-62
2023/09/15 02:26:05;;;;;;;8.15;4.00;;;11.50;99.90;;;;;;5030765;28;20096;-63
2023/09/15 02:28:32;;;;;;;11.30;5.18;;;11.50;99.90;;;;;;5031693;28;20048;-62
2023/09/15 02:30:57;;;;;;;9.73;5.05;;;11.50;99.90;;;;;;5031472;28;20041;-62
2023/09/15 02:33:23;;;;;;;9.30;4.35;;;11.50;99.90;;;;;;5030536;28;20056;-62
2023/09/15 02:35:50;;;;;;;9.60;4.93;;;11.40;99.90;;;;;;5031139;28;20041;-62
2023/09/15 02:38:15;;;;;;;7.75;4.40;;;11.40;99.90;;;;;;5014165;28;20045;-63
2023/09/15 02:40:41;;;;;;;8.82;4.47;;;11.40;99.90;;;;;;5029806;28;20398;-62
2023/09/15 02:43:08;;;;;;;10.27;4.93;;;11.40;99.90;;;;;;5014780;28;20367;-62
2023/09/15 02:45:35;;;;;;;10.70;5.25;;;11.40;99.90;;;;;;5030279;28;20502;-62
2023/09/15 02:48:02;;;;;;;12.32;4.63;;;11.30;99.90;;;;;;5030526;28;20072;-62
2023/09/15 02:50:28;;;;;;;11.88;5.65;;;11.30;99.90;;;;;;5013704;28;20049;-63
2023/09/15 02:52:53;;;;;;;12.90;6.00;;;11.30;99.90;;;;;;5030524;28;20053;-62
2023/09/15 02:55:19;;;;;;;11.55;5.05;;;11.30;99.90;;;;;;5029269;28;20045;-62
2023/09/15 02:57:45;;;;;;;9.82;5.25;;;11.30;99.90;;;;;;5014495;28;20045;-63
2023/09/15 03:00:13;;;;;;;9.60;5.45;;;11.30;99.90;;;;;;5030862;28;20049;-62
2023/09/15 03:02:40;;;;;;;12.88;5.82;;;11.20;99.90;;;;;;5030765;28;20065;-62
2023/09/15 03:05:08;;;;;;;9.43;5.20;;;11.20;99.90;;;;;;5031883;28;20116;-62
2023/09/15 03:07:36;;;;;;;8.35;5.13;;;11.20;99.90;;;;;;5030775;28;20729;-62
2023/09/15 03:10:04;;;;;;;14.38;6.47;;;11.20;99.90;;;;;;5030509;28;20120;-62
2023/09/15 03:12:29;;;;;;;11.77;6.32;;;11.20;99.90;;;;;;5030353;28;20073;-62
2023/09/15 03:14:55;;;;;;;14.10;6.30;;;11.10;99.90;;;;;;5017230;28;20069;-62
2023/09/15 03:17:21;;;;;;;11.98;6.68;;;11.10;99.90;;;;;;5029838;28;20057;-62
2023/09/15 03:19:47;;;;;;;12.20;6.80;;;11.10;99.90;;;;;;5030646;28;20068;-62
2023/09/15 03:22:14;;;;;;;17.67;6.80;;;11.10;99.90;;;;;;5013372;28;20046;-62
2023/09/15 03:24:42;;;;;;;10.40;6.20;;;11.10;99.90;;;;;;5030254;28;20112;-62
2023/09/15 03:27:08;;;;;;;13.85;6.75;;;11.10;99.90;;;;;;5031361;28;20099;-62
2023/09/15 03:29:34;;;;;;;13.98;5.80;;;11.10;99.90;;;;;;5029907;28;20494;-62
2023/09/15 03:32:00;;;;;;;13.98;6.50;;;11.10;99.90;;;;;;5032204;28;20371;-62
2023/09/15 03:34:26;;;;;;;14.90;6.57;;;11.10;99.90;;;;;;5030228;28;20086;-62
2023/09/15 03:36:51;;;;;;;10.43;6.10;;;11.00;99.90;;;;;;5029959;28;20049;-62
2023/09/15 03:39:17;;;;;;;12.18;6.65;;;11.00;99.90;;;;;;5030487;28;20041;-62
2023/09/15 03:41:43;;;;;;;11.07;6.97;;;11.00;99.90;;;;;;5030460;28;20502;-62
2023/09/15 03:44:08;;;;;;;11.50;5.97;;;11.00;99.90;;;;;;5030719;28;20445;-62
2023/09/15 03:46:35;;;;;;;10.02;5.95;;;11.00;99.90;;;;;;5030446;28;20046;-62
2023/09/15 03:49:01;;;;;;;14.23;5.63;;;11.00;99.90;;;;;;5030931;28;20390;-62
2023/09/15 03:51:29;;;;;;;10.13;4.97;;;11.00;99.90;;;;;;5030332;28;20405;-62
2023/09/15 03:53:55;;;;;;;17.30;7.00;;;11.00;99.90;;;;;;5030047;28;20041;-62
2023/09/15 03:56:20;;;;;;;14.25;6.97;;;11.00;99.90;;;;;;5030826;28;20108;-62
2023/09/15 03:58:48;;;;;;;13.10;5.85;;;11.00;99.90;;;;;;5033679;28;20087;-62
2023/09/15 04:01:14;;;;;;;9.50;5.55;;;10.90;99.90;;;;;;5037306;28;20056;-62
2023/09/15 04:03:40;;;;;;;9.40;5.32;;;10.90;99.90;;;;;;5046267;28;20095;-62
2023/09/15 04:06:06;;;;;;;11.20;5.80;;;10.90;99.90;;;;;;5000374;28;20124;-62
2023/09/15 04:08:32;;;;;;;11.27;5.88;;;10.90;99.90;;;;;;5017493;28;20099;-64
2023/09/15 04:10:58;;;;;;;9.57;6.00;;;10.80;99.90;;;;;;5018077;28;20042;-62
2023/09/15 04:13:23;;;;;;;11.50;5.95;;;10.80;99.90;;;;;;5005617;28;20040;-62
2023/09/15 04:15:50;;;;;;;12.40;5.70;;;10.80;99.90;;;;;;5013870;28;20052;-62
2023/09/15 04:18:16;;;;;;;10.55;5.65;;;10.80;99.90;;;;;;5017694;28;20131;-62
2023/09/15 04:20:41;;;;;;;10.00;5.10;;;10.80;99.90;;;;;;5016403;28;20085;-62
2023/09/15 04:23:07;;;;;;;8.23;4.75;;;10.80;99.90;;;;;;5017443;28;20128;-65
2023/09/15 04:25:33;;;;;;;11.90;5.82;;;10.70;99.90;;;;;;5016277;28;20045;-62
2023/09/15 04:27:58;;;;;;;12.50;5.00;;;10.70;99.90;;;;;;5017285;28;20045;-62
2023/09/15 04:30:24;;;;;;;9.35;5.10;;;10.70;99.90;;;;;;5034942;28;20056;-62
2023/09/15 04:32:50;;;;;;;9.68;5.25;;;10.70;99.90;;;;;;5000181;28;20124;-62
2023/09/15 04:35:16;;;;;;;8.75;5.00;;;10.70;99.90;;;;;;5036872;28;20098;-62
2023/09/15 04:37:41;;;;;;;8.43;4.40;;;10.60;99.90;;;;;;5033051;28;20044;-62
2023/09/15 04:40:07;;;;;;;7.65;4.35;;;10.60;99.90;;;;;;5019561;28;20037;-62
2023/09/15 04:42:33;;;;;;;11.90;5.25;;;10.60;99.90;;;;;;5020316;28;20041;-64
2023/09/15 04:45:00;;;;;;;9.63;5.32;;;10.60;99.90;;;;;;5036403;28;20402;-62
2023/09/15 04:47:44;;;;;;;9.50;5.10;;;10.60;99.90;;;;;;5022773;28;20041;-62
2023/09/15 04:50:10;;;;;;;10.07;4.88;;;10.60;99.90;;;;;;5036434;28;20047;-62
2023/09/15 04:52:35;;;;;;;8.57;4.45;;;10.60;99.90;;;;;;5020257;28;20048;-62
2023/09/15 04:55:01;;;;;;;8.45;3.97;;;10.60;99.90;;;;;;5036526;28;20045;-62
2023/09/15 04:57:27;;;;;;;9.07;4.22;;;10.60;99.90;;;;;;5034377;28;20087;-62
2023/09/15 04:59:53;;;;;;;10.25;4.40;;;10.60;99.90;;;;;;5026863;28;20133;-62
2023/09/15 05:02:22;;;;;;;9.52;4.57;;;10.50;99.90;;;;;;5035346;28;20085;-62
2023/09/15 05:04:48;;;;;;;7.75;4.20;;;10.50;99.90;;;;;;5054151;28;20051;-62
2023/09/15 05:07:15;;;;;;;7.55;4.05;;;10.50;99.90;;;;;;5036127;28;20511;-71
2023/09/15 05:09:40;;;;;;;7.25;4.10;;;10.50;99.90;;;;;;5034355;28;20080;-70
2023/09/15 05:12:06;;;;;;;7.43;4.00;;;10.50;99.90;;;;;;5036254;28;20068;-70
2023/09/15 05:14:32;;;;;;;8.52;4.50;;;10.50;99.90;;;;;;5036169;28;20049;-71
2023/09/15 05:16:57;;;;;;;6.55;3.35;;;10.50;99.90;;;;;;5035358;28;20044;-71
2023/09/15 05:19:23;;;;;;;10.80;4.22;;;10.50;99.90;;;;;;5036240;28;20053;-71
2023/09/15 05:21:49;;;;;;;7.88;3.50;;;10.50;99.90;;;;;;5035360;28;20040;-71
2023/09/15 05:24:14;;;;;;;8.43;4.82;;;10.50;99.90;;;;;;5035536;28;20036;-70
2023/09/15 05:26:40;;;;;;;8.35;3.92;;;10.50;99.90;;;;;;5035369;28;20095;-71
2023/09/15 05:29:06;;;;;;;7.95;4.97;;;10.50;99.90;;;;;;5035309;28;20119;-73
2023/09/15 05:31:31;;;;;;;11.68;4.60;;;10.50;99.90;;;;;;5035773;28;20493;-73
2023/09/15 05:34:00;;;;;;;9.43;4.45;;;10.50;99.90;;;;;;5053908;28;20040;-73
2023/09/15 05:36:26;;;;;;;7.07;3.97;;;10.50;99.90;;;;;;5034552;28;20059;-66
2023/09/15 05:38:52;;;;;;;12.30;5.15;;;10.50;99.90;;;;;;5035054;28;20497;-66
2023/09/15 05:41:18;;;;;;;6.75;3.70;;;10.40;99.90;;;;;;5034110;28;20056;-66
2023/09/15 05:43:44;;;;;;;8.60;4.20;;;10.40;99.90;;;;;;5035114;28;20048;-66
2023/09/15 05:46:10;;;;;;;7.03;3.88;;;10.40;99.90;;;;;;5035870;28;20029;-64
2023/09/15 05:48:36;;;;;;;8.50;3.97;;;10.40;99.90;;;;;;5035367;28;20385;-64
2023/09/15 05:51:06;;;;;;;8.07;4.05;;;10.40;99.90;;;;;;5035652;28;20049;-64
2023/09/15 05:53:32;;;;;;;8.60;4.20;;;10.40;99.90;;;;;;5035514;28;20048;-64
2023/09/15 05:55:58;;;;;;;7.75;3.97;;;10.40;99.90;;;;;;5035496;28;20456;-64
2023/09/15 05:58:24;;;;;;;7.20;4.28;;;10.40;99.90;;;;;;5034728;28;20048;-64
2023/09/15 06:00:56;;;;;;;9.43;4.55;;;10.40;99.90;;;;;;5031302;28;20049;-64
2023/09/15 06:03:28;;;;;;;7.80;4.05;;;10.50;99.90;;;;;;5032196;28;20112;-64
2023/09/15 06:05:54;;;;;;;8.73;4.05;;;10.50;99.90;;;;;;5031767;28;20046;-64
2023/09/15 06:08:19;;;;;;;7.13;3.70;;;10.50;99.90;;;;;;5026488;28;20125;-64
2023/09/15 06:10:47;;;;;;;8.35;4.05;;;10.60;99.90;;;;;;5027086;28;20103;-64
2023/09/15 06:13:13;;;;;;;8.75;4.18;;;10.60;99.90;;;;;;5016647;28;20050;-64
2023/09/15 06:15:39;;;;;;;10.13;4.50;;;10.60;99.90;;;;;;5009696;28;20053;-64
2023/09/15 06:18:05;;;;;;;9.95;4.55;;;10.70;99.90;;;;;;5007103;28;20045;-64
2023/09/15 06:20:31;;;;;;;11.40;4.53;;;10.70;99.90;;;;;;5028763;28;20049;-64
2023/09/15 06:23:00;;;;;;;11.70;4.28;;;10.80;99.90;;;;;;5029342;28;20375;-64
2023/09/15 06:25:26;;;;;;;10.48;4.85;;;10.90;99.90;;;;;;5028722;28;20041;-64
2023/09/15 06:27:52;;;;;;;6.72;3.88;;;10.90;99.90;;;;;;5027761;28;20106;-64
2023/09/15 06:30:17;;;;;;;7.55;4.07;;;11.00;99.90;;;;;;5028884;28;20045;-64
2023/09/15 06:32:43;;;;;;;9.60;4.00;;;11.10;99.90;;;;;;5027889;28;20033;-64
2023/09/15 06:35:13;;;;;;;8.40;4.00;;;11.10;99.90;;;;;;5029106;28;20147;-64
2023/09/15 06:37:42;;;;;;;7.55;4.20;;;11.20;99.90;;;;;;5029040;28;20057;-64
2023/09/15 06:40:08;;;;;;;8.63;3.47;;;11.30;99.90;;;;;;5028007;28;20055;-64
2023/09/15 06:42:34;;;;;;;6.82;3.70;;;11.30;99.90;;;;;;5027976;28;20045;-64
2023/09/15 06:45:00;;;;;;;6.57;3.78;;;11.40;99.90;;;;;;5011993;28;20041;-64
2023/09/15 06:47:26;;;;;;;7.47;3.65;;;11.50;99.90;;;;;;5028093;28;20402;-64
2023/09/15 06:49:52;;;;;;;7.57;3.63;;;11.60;99.90;;;;;;5028606;28;20041;-64
2023/09/15 06:52:17;;;;;;;7.78;4.03;;;11.60;99.90;;;;;;5028667;28;20052;-63
2023/09/15 06:54:43;;;;;;;8.82;4.07;;;11.70;99.90;;;;;;5028184;28;20057;-64
2023/09/15 06:57:09;;;;;;;8.48;3.53;;;11.80;99.90;;;;;;5028739;28;20046;-64
2023/09/15 06:59:35;;;;;;;7.55;4.32;;;11.80;99.90;;;;;;5028157;28;20084;-64
2023/09/15 07:02:02;;;;;;;7.53;3.92;;;12.00;99.90;;;;;;5029245;28;20058;-64
2023/09/15 07:04:29;;;;;;;7.00;3.58;;;12.00;99.90;;;;;;5018898;28;20110;-63
2023/09/15 07:06:55;;;;;;;9.95;4.35;;;12.10;99.90;;;;;;5036150;28;20393;-64
2023/09/15 07:09:22;;;;;;;7.68;3.80;;;12.20;99.90;;;;;;5037053;28;20049;-64
2023/09/15 07:11:48;;;;;;;9.88;4.15;;;12.30;99.90;;;;;;5027818;28;20056;-65
2023/09/15 07:14:14;;;;;;;7.80;3.83;;;12.30;99.90;;;;;;5024481;28;20045;-66
2023/09/15 07:16:41;;;;;;;8.15;4.03;;;12.40;99.90;;;;;;5048109;28;20051;-64
2023/09/15 07:19:06;;;;;;;8.40;4.28;;;12.50;99.90;;;;;;5037506;28;20516;-64
2023/09/15 07:21:32;;;;;;;6.88;3.70;;;12.60;99.90;;;;;;5026545;28;20046;-64
2023/09/15 07:23:59;;;;;;;7.38;4.38;;;12.70;99.90;;;;;;5028083;28;20033;-64
2023/09/15 07:26:26;;;;;;;8.27;3.85;;;12.80;99.90;;;;;;5026077;28;20049;-64
2023/09/15 07:28:53;;;;;;;8.00;4.22;;;12.80;99.90;;;;;;5027346;28;20120;-64
2023/09/15 07:31:20;;;;;;;9.77;4.32;;;12.90;99.90;;;;;;5016521;28;20041;-66
2023/09/15 07:33:46;;;;;;;8.13;3.72;;;13.00;99.90;;;;;;5011996;28;20060;-68
2023/09/15 07:36:12;;;;;;;7.72;3.70;;;13.10;99.90;;;;;;5044390;28;20112;-62
2023/09/15 07:38:37;;;;;;;7.68;3.95;;;13.20;99.90;;;;;;5018906;28;20573;-64
2023/09/15 07:41:04;;;;;;;9.20;4.05;;;13.40;99.90;;;;;;5032091;28;20054;-66
2023/09/15 07:43:29;;;;;;;10.07;3.88;;;13.40;99.90;;;;;;5032246;28;20049;-68
2023/09/15 07:45:55;;;;;;;7.97;4.18;;;13.50;99.90;;;;;;5032066;28;20045;-68
2023/09/15 07:48:23;;;;;;;9.25;4.32;;;13.60;99.90;;;;;;5032057;28;20033;-62
2023/09/15 07:50:50;;;;;;;10.00;4.60;;;13.70;99.90;;;;;;5030450;28;20115;-57
2023/09/15 07:53:16;;;;;;;12.93;4.95;;;13.80;99.90;;;;;;5032038;28;20038;-61
2023/09/15 07:55:42;;;;;;;18.63;4.90;;;13.90;99.90;;;;;;5031152;28;20042;-60
2023/09/15 07:58:08;;;;;;;8.15;3.63;;;14.00;99.90;;;;;;5032349;28;20132;-61
2023/09/15 08:00:33;;;;;;;7.10;4.05;;;14.10;99.90;;;;;;5031912;28;20057;-60
2023/09/15 08:02:59;;;;;;;8.23;3.60;;;14.20;99.90;;;;;;5032306;28;20413;-60
2023/09/15 08:05:25;;;;;;;7.70;3.53;;;14.30;99.90;;;;;;5030952;28;20041;-61
2023/09/15 08:07:51;;;;;;;8.57;3.33;;;14.40;99.90;;;;;;5014126;28;20029;-61
2023/09/15 08:10:21;;;;;;;10.02;3.53;;;14.50;99.90;;;;;;5029460;28;20045;-60
2023/09/15 08:12:52;;;;;;;7.82;3.80;;;14.50;99.90;;;;;;5030259;28;20041;-59
2023/09/15 08:15:22;;;;;;;9.25;3.47;;;14.60;99.90;;;;;;5031523;28;20056;-60
2023/09/15 08:17:48;;;;;;;9.02;3.80;;;14.70;99.90;;;;;;5031342;28;20100;-59
2023/09/15 08:20:14;;;;;;;8.23;3.08;;;14.90;99.90;;;;;;5034050;28;20137;-60
2023/09/15 08:22:41;;;;;;;6.55;3.33;;;14.90;99.90;;;;;;5032981;28;20128;-59
2023/09/15 08:25:08;;;;;;;7.90;3.33;;;15.00;99.90;;;;;;5032640;28;20048;-60
2023/09/15 08:27:34;;;;;;;8.88;3.65;;;15.10;99.90;;;;;;5033919;28;20155;-60
2023/09/15 08:30:00;;;;;;;8.02;3.08;;;15.20;99.90;;;;;;5034327;28;20046;-60
2023/09/15 08:32:26;;;;;;;7.25;3.00;;;15.20;99.90;;;;;;5034493;28;20474;-60
2023/09/15 08:34:53;;;;;;;9.68;3.40;;;15.30;99.90;;;;;;5016934;28;20107;-59
2023/09/15 08:37:19;;;;;;;8.02;2.60;;;15.40;99.90;;;;;;5033876;28;20384;-59
2023/09/15 08:39:46;;;;;;;8.57;3.53;;;15.40;99.90;;;;;;5032959;28;20482;-59
2023/09/15 08:42:29;;;;;;;7.18;3.25;;;15.50;99.90;;;;;;5033284;28;20052;-59
2023/09/15 08:44:57;;;;;;;8.73;3.42;;;15.50;99.90;;;;;;5017654;28;20033;-59
2023/09/15 08:47:25;;;;;;;8.15;3.53;;;15.60;99.90;;;;;;5034221;28;20048;-60
2023/09/15 08:49:52;;;;;;;9.25;3.17;;;15.70;99.90;;;;;;5032872;28;20117;-60
2023/09/15 08:52:18;;;;;;;6.65;3.15;;;15.70;99.90;;;;;;5032765;28;20120;-64
2023/09/15 08:54:47;;;;;;;7.55;3.60;;;15.80;99.90;;;;;;5032024;28;20160;-65
2023/09/15 08:57:15;;;;;;;8.70;3.47;;;15.90;99.90;;;;;;5033402;28;20042;-63
2023/09/15 08:59:42;;;;;;;7.57;3.40;;;16.00;99.90;;;;;;5033469;28;20056;-64
2023/09/15 09:02:14;;;;;;;7.03;3.42;;;16.00;99.90;;;;;;5036544;28;20049;-64
2023/09/15 09:04:39;;;;;;;6.30;3.83;;;16.10;99.90;;;;;;5036586;28;20045;-64
2023/09/15 09:07:06;;;;;;;10.27;3.78;;;16.20;99.90;;;;;;5035008;28;20044;-63
2023/09/15 09:09:32;;;;;;;8.75;3.50;;;16.30;99.90;;;;;;5053700;28;20052;-63
2023/09/15 09:11:58;;;;;;;6.95;3.72;;;16.30;99.90;;;;;;5036728;28;20044;-65
2023/09/15 09:14:24;;;;;;;7.25;3.47;;;16.40;99.90;;;;;;5035195;28;20041;-65
2023/09/15 09:16:51;;;;;;;8.15;4.07;;;16.40;99.90;;;;;;5036304;28;20405;-65
2023/09/15 09:19:17;;;;;;;7.28;3.47;;;16.50;99.90;;;;;;5036599;28;20465;-65
2023/09/15 09:21:44;;;;;;;6.13;3.65;;;16.50;99.90;;;;;;5018976;28;20072;-65
2023/09/15 09:24:10;;;;;;;6.43;3.75;;;16.70;99.90;;;;;;5035657;28;20131;-65
2023/09/15 09:26:37;;;;;;;10.48;3.90;;;16.70;99.90;;;;;;5035569;28;20094;-64
2023/09/15 09:29:03;;;;;;;10.25;3.60;;;16.80;99.90;;;;;;5043730;28;20080;-64
2023/09/15 09:31:29;;;;;;;10.48;4.10;;;16.80;99.90;;;;;;5019703;28;20047;-62
2023/09/15 09:33:57;;;;;;;8.45;4.28;;;16.90;99.90;;;;;;5035895;28;20037;-62
2023/09/15 09:36:23;;;;;;;6.38;3.47;;;16.90;99.90;;;;;;5035237;28;20049;-61
2023/09/15 09:38:50;;;;;;;7.32;4.05;;;16.90;99.90;;;;;;5035993;28;20393;-62
2023/09/15 09:41:19;;;;;;;7.55;4.15;;;17.00;99.90;;;;;;5035253;28;20478;-63
2023/09/15 09:43:51;;;;;;;7.07;4.20;;;17.00;99.90;;;;;;5034790;28;20108;-62
2023/09/15 09:46:21;;;;;;;10.35;4.85;;;17.20;99.90;;;;;;5034928;28;20425;-62
2023/09/15 09:48:48;;;;;;;12.88;5.28;;;17.20;99.90;;;;;;5019031;28;20045;-62
2023/09/15 09:51:14;;;;;;;6.90;3.92;;;17.30;99.90;;;;;;5034465;28;20045;-61
2023/09/15 09:53:40;;;;;;;9.20;4.45;;;17.30;99.90;;;;;;5035656;28;20052;-61
2023/09/15 09:56:06;;;;;;;9.00;4.15;;;17.40;99.90;;;;;;5034340;28;20033;-61
2023/09/15 09:58:33;;;;;;;8.10;4.00;;;17.40;99.90;;;;;;5053470;28;20040;-62
2023/09/15 10:00:59;;;;;;;10.68;3.97;;;17.50;99.90;;;;;;5050849;28;20049;-62
2023/09/15 10:03:25;;;;;;;10.73;5.32;;;17.60;99.90;;;;;;5031828;28;20041;-62
2023/09/15 10:05:52;;;;;;;8.85;4.25;;;17.60;99.90;;;;;;5015231;28;20052;-62
2023/09/15 10:08:18;;;;;;;10.48;4.82;;;17.70;99.90;;;;;;5015270;28;20053;-62
2023/09/15 10:10:46;;;;;;;10.27;4.75;;;17.70;99.90;;;;;;5014312;28;20045;-62
2023/09/15 10:13:15;;;;;;;10.05;4.70;;;17.80;99.90;;;;;;5032444;28;20414;-62
2023/09/15 10:15:42;;;;;;;7.30;4.70;;;17.80;99.90;;;;;;5025677;28;20431;-61
2023/09/15 10:18:12;;;;;;;9.60;4.60;;;17.90;99.90;;;;;;5027945;28;20474;-61
2023/09/15 10:20:42;;;;;;;7.95;5.13;;;17.90;99.90;;;;;;5014186;28;20045;-61
2023/09/15 10:23:10;;;;;;;6.70;3.88;;;17.90;99.90;;;;;;5020204;28;20490;-62
2023/09/15 10:25:50;;;;;;;10.35;4.15;;;18.00;99.90;;;;;;5033334;28;20052;-61
2023/09/15 10:28:19;;;;;;;10.07;4.90;;;18.00;99.90;;;;;;5034483;28;20041;-61
2023/09/15 10:30:45;;;;;;;8.68;4.40;;;18.00;99.90;;;;;;5034514;28;20051;-61
2023/09/15 10:33:12;;;;;;;8.20;4.35;;;18.00;99.90;;;;;;5033940;28;20063;-61
2023/09/15 10:35:44;;;;;;;13.23;5.03;;;18.10;99.90;;;;;;5017786;28;20045;-62
2023/09/15 10:38:10;;;;;;;10.10;5.05;;;18.10;99.90;;;;;;5033932;28;20474;-61
2023/09/15 10:40:47;;;;;;;8.13;4.75;;;18.20;99.90;;;;;;5034536;28;20039;-61
2023/09/15 10:43:17;;;;;;;11.07;4.38;;;18.20;99.90;;;;;;5018214;28;20474;-64
2023/09/15 10:46:03;;;;;;;9.43;3.85;;;18.20;99.90;;;;;;5034155;28;20099;-64
2023/09/15 10:48:44;;;;;;;8.52;4.45;;;18.30;99.90;;;;;;5033866;28;20048;-62
2023/09/15 10:51:10;;;;;;;9.93;5.55;;;18.40;99.90;;;;;;5033115;28;20047;-61
2023/09/15 10:53:44;;;;;;;9.77;4.97;;;18.40;99.90;;;;;;5033479;28;20048;-63
2023/09/15 10:56:10;;;;;;;7.80;4.57;;;18.50;99.90;;;;;;5034656;28;20049;-63
2023/09/15 10:58:37;;;;;;;9.10;4.40;;;18.60;99.90;;;;;;5052448;28;20044;-60
2023/09/15 11:01:03;;;;;;;8.88;3.67;;;18.60;99.90;;;;;;5030457;28;20058;-60
2023/09/15 11:03:30;;;;;;;8.05;4.20;;;18.60;99.90;;;;;;5014117;28;20049;-60
2023/09/15 11:05:59;;;;;;;9.95;4.43;;;18.70;99.90;;;;;;5030442;28;20045;-60
2023/09/15 11:08:25;;;;;;;8.88;5.15;;;18.70;99.90;;;;;;5029265;28;20042;-60
2023/09/15 11:11:09;;;;;;;9.75;4.30;;;18.70;99.90;;;;;;5011654;28;20041;-60
2023/09/15 11:13:36;;;;;;;9.80;4.55;;;18.60;99.90;;;;;;5011168;28;20110;-60
2023/09/15 11:16:02;;;;;;;6.00;3.28;;;18.60;99.90;;;;;;5011558;28;20056;-60
2023/09/15 11:18:33;;;;;;;7.88;3.85;;;18.60;99.90;;;;;;4994413;28;20074;-60
2023/09/15 11:20:58;;;;;;;7.80;3.88;;;18.70;99.90;;;;;;5011875;28;20049;-60
2023/09/15 11:23:24;;;;;;;7.53;4.32;;;18.80;99.90;;;;;;5011240;28;20045;-60
2023/09/15 11:26:01;;;;;;;6.65;3.67;;;18.80;99.90;;;;;;5020684;28;20034;-60
2023/09/15 11:28:37;;;;;;;6.25;3.90;;;18.90;99.90;;;;;;5031436;28;20033;-62
2023/09/15 11:31:07;;;;;;;7.45;3.55;;;18.90;99.90;;;;;;5031004;28;20084;-67
2023/09/15 11:33:33;;;;;;;6.43;3.80;;;19.00;99.90;;;;;;5030616;28;20110;-67
2023/09/15 11:36:00;;;;;;;8.32;3.80;;;19.00;99.90;;;;;;5030120;28;20128;-68
2023/09/15 11:38:27;;;;;;;7.53;4.15;;;19.10;99.90;;;;;;5030871;28;20049;-68
2023/09/15 11:40:53;;;;;;;11.20;3.90;;;19.10;99.90;;;;;;5030747;28;20044;-68
2023/09/15 11:43:23;;;;;;;7.82;3.78;;;19.20;99.90;;;;;;5030089;28;20120;-69
2023/09/15 11:45:51;;;;;;;6.97;4.28;;;19.20;99.90;;;;;;5031770;28;20038;-69
2023/09/15 11:48:18;;;;;;;6.90;3.58;;;19.20;99.90;;;;;;5030843;28;20038;-66
2023/09/15 11:50:46;;;;;;;8.23;3.85;;;19.20;99.90;;;;;;5029408;28;20548;-64
2023/09/15 11:53:12;;;;;;;7.72;3.45;;;19.20;99.90;;;;;;5030605;28;20083;-65
2023/09/15 11:55:38;;;;;;;9.52;3.75;;;19.10;99.90;;;;;;5029847;28;20077;-64
2023/09/15 11:58:04;;;;;;;7.05;4.00;;;19.10;99.90;;;;;;5031512;28;20037;-65
2023/09/15 12:00:32;;;;;;;7.95;3.67;;;19.10;99.90;;;;;;5029709;28;20055;-65
2023/09/15 12:02:58;;;;;;;8.68;4.13;;;19.10;99.90;;;;;;5029785;28;20045;-66
2023/09/15 12:05:29;;;;;;;8.95;3.78;;;19.10;99.90;;;;;;5014022;28;20033;-65
2023/09/15 12:07:55;;;;;;;6.07;3.00;;;19.20;99.90;;;;;;5031216;28;20120;-66
2023/09/15 12:10:25;;;;;;;6.63;3.22;;;19.30;99.90;;;;;;5029427;28;20055;-68
2023/09/15 12:12:59;;;;;;;7.40;3.35;;;19.40;99.90;;;;;;5029688;28;20041;-68
2023/09/15 12:15:26;;;;;;;7.72;3.35;;;19.50;99.90;;;;;;5029152;28;20076;-73
2023/09/15 12:17:52;;;;;;;8.07;3.90;;;19.50;99.90;;;;;;5030287;28;20045;-72
2023/09/15 12:20:23;;;;;;;8.43;3.92;;;19.50;99.90;;;;;;5016694;28;20033;-73
2023/09/15 12:22:49;;;;;;;7.07;3.30;;;19.50;99.90;;;;;;5033772;28;20041;-72
2023/09/15 12:25:16;;;;;;;7.07;2.92;;;19.50;99.90;;;;;;5033364;28;20053;-73
2023/09/15 12:27:42;;;;;;;7.70;3.67;;;19.50;99.90;;;;;;5033980;28;20479;-70
2023/09/15 12:30:10;;;;;;;5.95;2.63;;;19.50;99.90;;;;;;5033783;28;20048;-66
2023/09/15 12:32:36;;;;;;;10.45;3.15;;;19.50;99.90;;;;;;5033075;28;20046;-67
2023/09/15 12:35:12;;;;;;;8.75;3.17;;;19.50;99.90;;;;;;5034321;28;20124;-66
2023/09/15 12:37:46;;;;;;;10.38;3.10;;;19.50;99.90;;;;;;5033346;28;20048;-62
2023/09/15 12:40:15;;;;;;;8.07;2.45;;;19.50;99.90;;;;;;5032812;28;20045;-64
2023/09/15 12:42:43;;;;;;;7.50;2.28;;;19.60;99.90;;;;;;5033440;28;20056;-64
2023/09/15 12:45:09;;;;;;;7.22;2.97;;;19.60;99.90;;;;;;5016159;28;20041;-63